Cherokee — 9HBC7 — position and weather

sailwx.info

Track history (hours):
 
Tides and Currents Weather Stations Pressure Air Temp Water Temp Dewpoint Dewpoint Depression Visibility Wind Speed Wind Dir Waves Ship Positions

Cherokee

Last reported at 2017-Jul-23 05:13 UTC. Time now 2017-Jul-28 18:49 UTC.
Position N 45°29' E 036°43'.

Length 140 m; draft 2.8 m.

Type: Cargo ship. MMSI: 215059000.

Date/timePositionNaut miles runAvg speedWind from/ knotsBaromVisibWave heightAir tempDewpointWater temp
2017-Jul-23 05:13N 45°29' E 036°43'2 7.4
2017-Jul-23 05:00N 45°27' E 036°42'4 7.4
2017-Jul-23 04:30N 45°24' E 036°41'3 6.8
2017-Jul-23 04:01N 45°21' E 036°39'4 8.0
2017-Jul-23 03:30N 45°19' E 036°34'4 6.7
2017-Jul-23 02:58N 45°17' E 036°29'1 2.9
2017-Jul-23 02:30N 45°16' E 036°29'0 0.2
2017-Jul-23 01:58N 45°16' E 036°29'2 1.5
2017-Jul-23 00:35N 45°14' E 036°29'0 0.1
2017-Jul-23 00:29N 45°14' E 036°29'0 0.0
2017-Jul-22 22:35N 45°14' E 036°29'0 0.3
2017-Jul-22 22:29N 45°14' E 036°29'0 0.0
2017-Jul-22 19:47N 45°14' E 036°29'0 0.0
2017-Jul-22 19:14N 45°14' E 036°29'0 0.0
2017-Jul-22 18:56N 45°14' E 036°29'0 0.0
2017-Jul-22 16:59N 45°14' E 036°29'0 0.0
2017-Jul-22 16:29N 45°14' E 036°29'0 0.0
2017-Jul-22 15:59N 45°14' E 036°29'0 0.0
2017-Jul-22 15:26N 45°14' E 036°29'0 0.0
2017-Jul-22 14:59N 45°14' E 036°29'0 0.0
2017-Jul-22 13:59N 45°14' E 036°29'0 0.0
2017-Jul-22 13:29N 45°14' E 036°29'0 0.0
2017-Jul-22 12:59N 45°14' E 036°29'0 0.0
2017-Jul-22 12:29N 45°14' E 036°29'0 0.0
2017-Jul-22 11:59N 45°14' E 036°29'0 0.0
2017-Jul-22 11:26N 45°14' E 036°29'0 0.0
2017-Jul-22 10:56N 45°14' E 036°29'0 0.0
2017-Jul-22 10:29N 45°14' E 036°29'0 0.0
2017-Jul-22 09:59N 45°14' E 036°29'0 0.0
2017-Jul-22 09:23N 45°14' E 036°29'1 1.5
2017-Jul-22 09:00N 45°13' E 036°29'3 4.1
2017-Jul-22 08:19N 45°11' E 036°29'  
Track history (hours):
 
Tides and Currents Weather Stations Pressure Air Temp Water Temp Dewpoint Dewpoint Depression Visibility Wind Speed Wind Dir Waves Ship Positions

Cherokee

Last reported at 2017-Jul-23 05:13 UTC. Time now 2017-Jul-28 18:49 UTC.
Position N 45°29' E 036°43'.

Length 140 m; draft 2.8 m.

Type: Cargo ship. MMSI: 215059000.

Date/timePositionNaut miles runAvg speedWind from/ knotsBaromVisibWave heightAir tempDewpointWater temp
2017-Jul-23 05:13N 45°29' E 036°43'2 7.4
2017-Jul-23 05:00N 45°27' E 036°42'4 7.4
2017-Jul-23 04:30N 45°24' E 036°41'3 6.8
2017-Jul-23 04:01N 45°21' E 036°39'4 8.0
2017-Jul-23 03:30N 45°19' E 036°34'4 6.7
2017-Jul-23 02:58N 45°17' E 036°29'1 2.9
2017-Jul-23 02:30N 45°16' E 036°29'0 0.2
2017-Jul-23 01:58N 45°16' E 036°29'2 1.5
2017-Jul-23 00:35N 45°14' E 036°29'0 0.1
2017-Jul-23 00:29N 45°14' E 036°29'0 0.0
2017-Jul-22 22:35N 45°14' E 036°29'0 0.3
2017-Jul-22 22:29N 45°14' E 036°29'0 0.0
2017-Jul-22 19:47N 45°14' E 036°29'0 0.0
2017-Jul-22 19:14N 45°14' E 036°29'0 0.0
2017-Jul-22 18:56N 45°14' E 036°29'0 0.0
2017-Jul-22 16:59N 45°14' E 036°29'0 0.0
2017-Jul-22 16:29N 45°14' E 036°29'0 0.0
2017-Jul-22 15:59N 45°14' E 036°29'0 0.0
2017-Jul-22 15:26N 45°14' E 036°29'0 0.0
2017-Jul-22 14:59N 45°14' E 036°29'0 0.0
2017-Jul-22 13:59N 45°14' E 036°29'0 0.0
2017-Jul-22 13:29N 45°14' E 036°29'0 0.0
2017-Jul-22 12:59N 45°14' E 036°29'0 0.0
2017-Jul-22 12:29N 45°14' E 036°29'0 0.0
2017-Jul-22 11:59N 45°14' E 036°29'0 0.0
2017-Jul-22 11:26N 45°14' E 036°29'0 0.0
2017-Jul-22 10:56N 45°14' E 036°29'0 0.0
2017-Jul-22 10:29N 45°14' E 036°29'0 0.0
2017-Jul-22 09:59N 45°14' E 036°29'0 0.0
2017-Jul-22 09:23N 45°14' E 036°29'1 1.5
2017-Jul-22 09:00N 45°13' E 036°29'3 4.1
2017-Jul-22 08:19N 45°11' E 036°29'  

Dump ship's entire track history